createdAt,value
2023-04-04T00:00:52.074Z,5.70
2023-04-04T00:03:18.930Z,5.70
2023-04-04T00:05:45.772Z,5.60
2023-04-04T00:08:12.551Z,5.60
2023-04-04T00:10:39.934Z,5.50
2023-04-04T00:13:07.669Z,5.50
2023-04-04T00:15:36.080Z,5.50
2023-04-04T00:18:04.141Z,5.40
2023-04-04T00:20:32.173Z,5.40
2023-04-04T00:22:58.982Z,5.50
2023-04-04T00:25:25.804Z,5.50
2023-04-04T00:27:52.642Z,5.40
2023-04-04T00:30:19.527Z,5.40
2023-04-04T00:32:46.440Z,5.40
2023-04-04T00:35:15.312Z,5.40
2023-04-04T00:37:42.662Z,5.40
2023-04-04T00:40:09.845Z,5.30
2023-04-04T00:42:37.370Z,5.30
2023-04-04T00:45:10.250Z,5.30
2023-04-04T00:47:39.573Z,5.30
2023-04-04T00:50:09.272Z,5.20
2023-04-04T00:52:36.295Z,5.10
2023-04-04T00:55:06.874Z,5.10
2023-04-04T00:57:34.848Z,5.10
2023-04-04T01:00:07.361Z,5.00
2023-04-04T01:02:35.582Z,5.00
2023-04-04T01:05:05.073Z,5.00
2023-04-04T01:07:32.597Z,5.00
2023-04-04T01:09:59.497Z,5.00
2023-04-04T01:12:27.007Z,4.90
2023-04-04T01:14:53.745Z,4.80
2023-04-04T01:17:21.838Z,4.80
2023-04-04T01:20:14.382Z,4.90
2023-04-04T01:22:43.807Z,4.90
2023-04-04T01:25:14.707Z,4.80
2023-04-04T01:27:41.493Z,4.80
2023-04-04T01:30:11.782Z,4.80
2023-04-04T01:33:03.355Z,4.70
2023-04-04T01:35:51.507Z,4.70
2023-04-04T01:38:35.466Z,4.60
2023-04-04T01:41:08.129Z,4.60
2023-04-04T01:43:35.553Z,4.50
2023-04-04T01:46:03.394Z,4.50
2023-04-04T01:48:30.347Z,4.50
2023-04-04T01:50:58.042Z,4.50
2023-04-04T01:53:24.802Z,4.50
2023-04-04T01:55:52.018Z,4.40
2023-04-04T01:58:18.776Z,4.20
2023-04-04T02:00:46.545Z,4.30
2023-04-04T02:03:13.276Z,4.30
2023-04-04T02:05:43.017Z,4.30
2023-04-04T02:08:09.841Z,4.30
2023-04-04T02:10:36.557Z,4.20
2023-04-04T02:13:03.260Z,4.20
2023-04-04T02:15:29.994Z,4.20
2023-04-04T02:17:56.809Z,4.20
2023-04-04T02:20:25.378Z,4.20
2023-04-04T02:22:56.578Z,4.10
2023-04-04T02:25:32.452Z,4.20
2023-04-04T02:27:59.243Z,4.10
2023-04-04T02:30:27.010Z,4.10
2023-04-04T02:32:54.303Z,4.10
2023-04-04T02:35:21.258Z,4.00
2023-04-04T02:37:50.402Z,4.00
2023-04-04T02:40:17.118Z,4.00
2023-04-04T02:42:44.858Z,4.00
2023-04-04T02:45:14.960Z,4.00
2023-04-04T02:47:43.214Z,4.00
2023-04-04T02:50:11.509Z,4.00
2023-04-04T02:52:38.334Z,3.90
2023-04-04T02:55:06.544Z,3.90
2023-04-04T02:57:33.450Z,3.80
2023-04-04T03:00:02.675Z,3.90
2023-04-04T03:02:29.674Z,3.90
2023-04-04T03:04:56.597Z,3.90
2023-04-04T03:07:23.383Z,3.90
2023-04-04T03:09:50.167Z,3.80
2023-04-04T03:12:21.874Z,3.70
2023-04-04T03:14:48.731Z,3.70
2023-04-04T03:17:15.817Z,3.70
2023-04-04T03:19:42.496Z,3.70
2023-04-04T03:22:09.255Z,3.70
2023-04-04T03:24:37.528Z,3.80
2023-04-04T03:27:05.199Z,3.70
2023-04-04T03:29:32.626Z,3.70
2023-04-04T03:31:59.409Z,3.70
2023-04-04T03:34:27.489Z,3.70
2023-04-04T03:36:54.309Z,3.60
2023-04-04T03:39:21.043Z,3.60
2023-04-04T03:41:48.470Z,3.60
2023-04-04T03:44:15.437Z,3.50
2023-04-04T03:46:42.122Z,3.50
2023-04-04T03:49:08.898Z,3.50
2023-04-04T03:51:35.628Z,3.50
2023-04-04T03:54:05.966Z,3.50
2023-04-04T03:56:32.869Z,3.50
2023-04-04T03:59:00.099Z,3.40
2023-04-04T04:01:26.962Z,3.40
2023-04-04T04:03:56.228Z,3.40
2023-04-04T04:06:23.179Z,3.40
2023-04-04T04:08:50.189Z,3.40
2023-04-04T04:11:18.336Z,3.30
2023-04-04T04:13:46.485Z,3.30
2023-04-04T04:16:13.251Z,3.40
2023-04-04T04:18:40.181Z,3.40
2023-04-04T04:21:06.971Z,3.30
2023-04-04T04:23:36.509Z,3.30
2023-04-04T04:26:03.318Z,3.30
2023-04-04T04:28:33.399Z,3.30
2023-04-04T04:31:24.883Z,3.30
2023-04-04T04:33:51.666Z,3.30
2023-04-04T04:36:18.485Z,3.20
2023-04-04T04:38:45.274Z,3.20
2023-04-04T04:41:12.050Z,3.20
2023-04-04T04:43:38.894Z,3.10
2023-04-04T04:46:05.669Z,3.10
2023-04-04T04:48:32.927Z,3.00
2023-04-04T04:50:59.653Z,3.00
2023-04-04T04:53:26.623Z,3.10
2023-04-04T04:55:53.559Z,3.10
2023-04-04T04:58:24.689Z,3.00
2023-04-04T05:00:57.808Z,3.00
2023-04-04T05:03:25.123Z,3.00
2023-04-04T05:05:52.004Z,3.00
2023-04-04T05:08:19.892Z,3.00
2023-04-04T05:10:46.653Z,2.90
2023-04-04T05:13:16.753Z,2.90
2023-04-04T05:15:43.531Z,2.80
2023-04-04T05:18:10.525Z,2.80
2023-04-04T05:20:37.552Z,2.90
2023-04-04T05:23:05.974Z,3.00
2023-04-04T05:25:32.877Z,2.90
2023-04-04T05:27:59.659Z,2.90
2023-04-04T05:30:26.431Z,2.80
2023-04-04T05:32:53.302Z,2.80
2023-04-04T05:35:20.417Z,2.80
2023-04-04T05:37:47.303Z,2.80
2023-04-04T05:40:14.294Z,2.80
2023-04-04T05:42:41.151Z,2.70
2023-04-04T05:45:08.931Z,2.70
2023-04-04T05:47:35.810Z,2.80
2023-04-04T05:50:02.786Z,2.80
2023-04-04T05:52:29.539Z,2.80
2023-04-04T05:54:58.166Z,2.90
2023-04-04T05:57:25.426Z,2.90
2023-04-04T05:59:52.425Z,2.90
2023-04-04T06:02:20.043Z,2.90
2023-04-04T06:04:46.792Z,3.00
2023-04-04T06:07:13.584Z,3.20
2023-04-04T06:09:41.221Z,3.00
2023-04-04T06:12:09.191Z,3.00
2023-04-04T06:14:37.172Z,3.00
2023-04-04T06:17:05.417Z,3.00
2023-04-04T06:19:34.207Z,3.00
2023-04-04T06:22:01.161Z,3.00
2023-04-04T06:24:27.877Z,3.00
2023-04-04T06:26:54.689Z,3.00
2023-04-04T06:29:21.618Z,3.10
2023-04-04T06:31:49.897Z,3.10
2023-04-04T06:34:16.682Z,3.10
2023-04-04T06:36:43.446Z,3.10
2023-04-04T06:39:10.220Z,3.10
2023-04-04T06:41:37.028Z,3.10
2023-04-04T06:44:03.759Z,3.10
2023-04-04T06:46:32.977Z,3.10
2023-04-04T06:49:01.011Z,3.10
2023-04-04T06:51:28.592Z,3.20
2023-04-04T06:53:58.523Z,3.20
2023-04-04T06:56:27.038Z,3.20
2023-04-04T06:58:53.844Z,3.30
2023-04-04T07:01:20.800Z,3.30
2023-04-04T07:03:47.696Z,3.30
2023-04-04T07:06:14.434Z,3.30
2023-04-04T07:08:41.248Z,3.40
2023-04-04T07:11:08.111Z,3.40
2023-04-04T07:13:35.377Z,3.50
2023-04-04T07:16:02.681Z,3.50
2023-04-04T07:18:29.622Z,3.50
2023-04-04T07:20:56.389Z,3.60
2023-04-04T07:23:23.178Z,3.60
2023-04-04T07:25:49.962Z,3.70
2023-04-04T07:28:16.727Z,3.70
2023-04-04T07:30:43.473Z,3.80
2023-04-04T07:33:10.525Z,3.80
2023-04-04T07:35:37.911Z,3.80
2023-04-04T07:38:05.757Z,3.90
2023-04-04T07:40:32.484Z,3.90
2023-04-04T07:45:35.110Z,4.00
2023-04-04T07:48:04.260Z,4.00
2023-04-04T07:50:31.472Z,4.10
2023-04-04T07:52:58.660Z,4.20
2023-04-04T07:55:26.028Z,4.20
2023-04-04T07:57:53.642Z,4.30
2023-04-04T08:00:22.567Z,4.30
2023-04-04T08:02:54.849Z,4.40
2023-04-04T08:05:22.015Z,4.40
2023-04-04T08:07:48.893Z,4.50
2023-04-04T08:10:19.158Z,4.60
2023-04-04T08:12:46.058Z,4.60
2023-04-04T08:15:12.982Z,4.70
2023-04-04T08:17:40.164Z,5.10
2023-04-04T08:20:07.777Z,5.30
2023-04-04T08:22:34.704Z,5.60
2023-04-04T08:25:01.460Z,5.90
2023-04-04T08:27:28.413Z,6.30
2023-04-04T08:29:55.641Z,6.70
2023-04-04T08:32:22.579Z,7.00
2023-04-04T08:34:49.750Z,7.20
2023-04-04T08:37:17.359Z,7.60
2023-04-04T08:39:44.259Z,7.90
2023-04-04T08:42:16.836Z,8.20
2023-04-04T08:44:45.963Z,8.30
2023-04-04T08:47:14.532Z,8.50
2023-04-04T08:49:46.195Z,8.80
2023-04-04T08:52:19.183Z,8.80
2023-04-04T08:54:47.916Z,8.90
2023-04-04T08:57:14.932Z,9.00
2023-04-04T08:59:42.510Z,9.20
2023-04-04T09:02:09.331Z,9.30
2023-04-04T09:04:37.008Z,9.40
2023-04-04T09:07:05.669Z,9.50
2023-04-04T09:09:36.414Z,9.40
2023-04-04T09:12:04.960Z,9.50
2023-04-04T09:14:33.590Z,9.60
2023-04-04T09:17:00.376Z,9.60
2023-04-04T09:19:27.626Z,9.60
2023-04-04T09:21:54.328Z,9.90
2023-04-04T09:24:21.102Z,9.90
2023-04-04T09:26:54.314Z,9.80
2023-04-04T09:29:21.968Z,10.00
2023-04-04T09:31:50.726Z,10.00
2023-04-04T09:34:21.557Z,10.00
2023-04-04T09:36:48.788Z,9.90
2023-04-04T09:39:16.690Z,9.80
2023-04-04T09:41:45.773Z,9.90
2023-04-04T09:44:13.225Z,10.20
2023-04-04T09:46:41.438Z,10.40
2023-04-04T09:49:20.624Z,10.30
2023-04-04T09:51:56.856Z,10.30
2023-04-04T09:54:29.686Z,10.30
2023-04-04T09:56:57.282Z,10.20
2023-04-04T09:59:24.999Z,10.60
2023-04-04T10:01:55.416Z,10.60
2023-04-04T10:04:26.916Z,10.50
2023-04-04T10:06:56.293Z,10.80
2023-04-04T10:09:23.523Z,10.60
2023-04-04T10:11:50.713Z,10.80
2023-04-04T10:14:17.638Z,10.90
2023-04-04T10:16:47.483Z,10.90
2023-04-04T10:19:18.617Z,11.10
2023-04-04T10:21:47.785Z,11.00
2023-04-04T10:24:14.741Z,10.80
2023-04-04T10:26:41.548Z,10.80
2023-04-04T10:29:08.348Z,11.00
2023-04-04T10:31:41.398Z,11.30
2023-04-04T10:34:44.646Z,11.20
2023-04-04T10:37:22.784Z,11.30
2023-04-04T10:40:03.411Z,11.40
2023-04-04T10:42:40.072Z,11.40
2023-04-04T10:45:20.355Z,11.50
2023-04-04T10:47:49.199Z,11.50
2023-04-04T10:50:16.223Z,11.20
2023-04-04T10:52:45.331Z,11.00
2023-04-04T10:55:15.790Z,11.10
2023-04-04T10:57:48.864Z,10.90
2023-04-04T11:00:18.958Z,11.00
2023-04-04T11:02:55.907Z,11.00
2023-04-04T11:05:47.261Z,11.10
2023-04-04T11:08:21.804Z,11.30
2023-04-04T11:10:51.215Z,11.30
2023-04-04T11:13:35.729Z,11.50
2023-04-04T11:16:25.327Z,11.50
2023-04-04T11:18:52.804Z,11.60
2023-04-04T11:21:24.781Z,11.70
2023-04-04T11:24:15.795Z,11.70
2023-04-04T11:26:43.346Z,11.70
2023-04-04T11:29:19.954Z,11.50
2023-04-04T11:31:50.577Z,11.30
2023-04-04T11:34:37.607Z,11.60
2023-04-04T11:37:19.259Z,11.40
2023-04-04T11:39:58.899Z,11.40
2023-04-04T11:42:37.827Z,11.60
2023-04-04T11:45:09.685Z,11.40
2023-04-04T11:47:38.566Z,11.40
2023-04-04T11:50:10.602Z,11.40
2023-04-04T11:52:40.364Z,11.50
2023-04-04T11:55:22.145Z,11.90
2023-04-04T11:57:53.669Z,11.90
2023-04-04T12:00:37.194Z,12.00
2023-04-04T12:03:11.463Z,12.10
2023-04-04T12:05:41.180Z,12.30
2023-04-04T12:08:11.115Z,12.10
2023-04-04T12:10:41.059Z,12.00
2023-04-04T12:13:11.485Z,11.70
2023-04-04T12:15:38.576Z,11.50
2023-04-04T12:18:09.830Z,11.70
2023-04-04T12:20:41.434Z,11.90
2023-04-04T12:23:09.536Z,11.80
2023-04-04T12:25:39.953Z,12.10
2023-04-04T12:28:07.989Z,11.90
2023-04-04T12:30:35.223Z,11.90
2023-04-04T12:33:02.704Z,12.10
2023-04-04T12:35:31.833Z,12.10
2023-04-04T12:38:10.924Z,12.30
2023-04-04T12:40:39.312Z,12.10
2023-04-04T12:43:10.256Z,12.20
2023-04-04T12:45:41.367Z,12.00
2023-04-04T12:48:15.340Z,12.10
2023-04-04T12:51:00.509Z,12.00
2023-04-04T12:56:16.434Z,12.20
2023-04-04T12:58:48.376Z,12.10
2023-04-04T13:01:19.460Z,12.00
2023-04-04T13:03:46.483Z,12.30
2023-04-04T13:06:17.474Z,12.70
2023-04-04T13:08:56.259Z,12.70
2023-04-04T13:11:23.823Z,12.70
2023-04-04T13:14:04.279Z,12.90
2023-04-04T13:17:06.475Z,12.90
2023-04-04T13:19:39.337Z,12.70
2023-04-04T13:22:09.293Z,12.20
2023-04-04T13:24:36.126Z,12.30
2023-04-04T13:27:02.938Z,12.80
2023-04-04T13:29:29.697Z,12.90
2023-04-04T13:31:57.125Z,13.10
2023-04-04T13:34:27.540Z,13.10
2023-04-04T13:36:54.460Z,13.20
2023-04-04T13:39:21.229Z,13.00
2023-04-04T13:41:48.056Z,13.10
2023-04-04T13:44:16.550Z,12.90
2023-04-04T13:46:43.734Z,12.80
2023-04-04T13:49:11.141Z,12.60
2023-04-04T13:51:38.420Z,12.80
2023-04-04T13:54:05.200Z,13.30
2023-04-04T13:56:32.004Z,13.50
2023-04-04T13:58:58.806Z,13.50
2023-04-04T14:01:25.845Z,13.30
2023-04-04T14:03:52.752Z,13.40
2023-04-04T14:06:19.915Z,13.30
2023-04-04T14:08:47.669Z,12.90
2023-04-04T14:11:15.824Z,12.90
2023-04-04T14:13:42.540Z,13.00
2023-04-04T14:16:09.416Z,13.10
2023-04-04T14:18:37.237Z,13.20
2023-04-04T14:21:05.345Z,13.20
2023-04-04T14:23:32.095Z,13.10
2023-04-04T14:25:58.905Z,12.90
2023-04-04T14:28:25.788Z,12.70
2023-04-04T14:30:52.599Z,12.40
2023-04-04T14:33:19.397Z,12.50
2023-04-04T14:35:46.213Z,12.60
2023-04-04T14:38:12.903Z,12.80
2023-04-04T14:40:39.986Z,13.00
2023-04-04T14:43:07.610Z,13.00
2023-04-04T14:45:34.612Z,13.00
2023-04-04T14:48:01.822Z,13.10
2023-04-04T14:50:28.731Z,13.00
2023-04-04T14:52:56.521Z,12.90
2023-04-04T14:55:23.763Z,12.90
2023-04-04T14:58:01.789Z,13.10
2023-04-04T15:00:31.323Z,13.00
2023-04-04T15:02:58.214Z,12.80
2023-04-04T15:05:26.643Z,13.10
2023-04-04T15:07:53.534Z,13.30
2023-04-04T15:10:20.310Z,13.20
2023-04-04T15:12:48.072Z,13.40
2023-04-04T15:15:15.667Z,13.30
2023-04-04T15:17:42.687Z,13.40
2023-04-04T15:20:10.325Z,13.40
2023-04-04T15:22:41.506Z,13.30
2023-04-04T15:25:09.354Z,13.20
2023-04-04T15:27:36.142Z,13.20
2023-04-04T15:30:03.476Z,13.30
2023-04-04T15:32:33.510Z,13.40
2023-04-04T15:35:02.106Z,13.50
2023-04-04T15:37:28.864Z,13.20
2023-04-04T15:39:55.629Z,13.20
2023-04-04T15:42:22.587Z,13.30
2023-04-04T15:44:50.039Z,13.30
2023-04-04T15:47:18.988Z,13.10
2023-04-04T15:49:46.360Z,12.80
2023-04-04T15:52:23.842Z,12.90
2023-04-04T15:54:50.701Z,13.00
2023-04-04T15:57:17.417Z,13.00
2023-04-04T15:59:47.213Z,12.80
2023-04-04T16:02:14.712Z,12.90
2023-04-04T16:04:41.854Z,13.00
2023-04-04T16:07:08.662Z,12.90
2023-04-04T16:09:36.308Z,13.00
2023-04-04T16:12:03.363Z,13.00
2023-04-04T16:14:30.099Z,12.90
2023-04-04T16:16:57.296Z,12.80
2023-04-04T16:19:23.997Z,12.80
2023-04-04T16:21:50.871Z,12.80
2023-04-04T16:24:17.578Z,12.60
2023-04-04T16:26:47.410Z,12.50
2023-04-04T16:29:17.277Z,12.30
2023-04-04T16:31:44.216Z,12.20
2023-04-04T16:34:10.984Z,12.20
2023-04-04T16:36:38.314Z,12.20
2023-04-04T16:39:06.753Z,12.20
2023-04-04T16:41:34.222Z,12.10
2023-04-04T16:44:01.139Z,11.90
2023-04-04T16:46:28.001Z,11.80
2023-04-04T16:48:54.873Z,11.80
2023-04-04T16:51:21.558Z,11.80
2023-04-04T16:53:48.273Z,11.60
2023-04-04T16:56:14.990Z,11.50
2023-04-04T16:58:42.888Z,11.50
2023-04-04T17:01:15.570Z,11.50
2023-04-04T17:03:42.363Z,11.50
2023-04-04T17:06:09.281Z,11.50
2023-04-04T17:08:36.506Z,11.40
2023-04-04T17:11:03.483Z,11.30
2023-04-04T17:13:30.465Z,11.00
2023-04-04T17:15:57.542Z,11.00
2023-04-04T17:18:24.692Z,10.80
2023-04-04T17:20:52.628Z,10.70
2023-04-04T17:23:19.366Z,10.70
2023-04-04T17:25:46.120Z,10.70
2023-04-04T17:28:13.334Z,10.70
2023-04-04T17:30:40.350Z,10.50
2023-04-04T17:33:07.994Z,10.60
2023-04-04T17:35:34.848Z,10.40
2023-04-04T17:38:01.615Z,10.60
2023-04-04T17:40:28.487Z,10.60
2023-04-04T17:42:55.348Z,10.60
2023-04-04T17:45:23.090Z,10.50
2023-04-04T17:47:49.879Z,10.40
2023-04-04T17:50:17.673Z,10.50
2023-04-04T17:52:44.354Z,10.50
2023-04-04T17:55:11.943Z,10.30
2023-04-04T17:57:38.822Z,10.30
2023-04-04T18:00:06.827Z,10.20
2023-04-04T18:02:33.601Z,10.20
2023-04-04T18:05:00.479Z,10.20
2023-04-04T18:07:27.212Z,10.30
2023-04-04T18:09:54.021Z,10.30
2023-04-04T18:12:20.793Z,10.20
2023-04-04T18:14:48.476Z,10.20
2023-04-04T18:17:15.314Z,10.10
2023-04-04T18:19:42.603Z,10.10
2023-04-04T18:22:09.527Z,10.10
2023-04-04T18:24:36.450Z,10.20
2023-04-04T18:27:03.294Z,10.10
2023-04-04T18:29:32.487Z,10.10
2023-04-04T18:32:03.697Z,10.00
2023-04-04T18:34:30.983Z,9.90
2023-04-04T18:36:57.730Z,9.80
2023-04-04T18:39:24.721Z,9.80
2023-04-04T18:41:51.735Z,9.70
2023-04-04T18:44:18.522Z,9.70
2023-04-04T18:46:45.353Z,9.80
2023-04-04T18:49:12.439Z,9.70
2023-04-04T18:51:39.201Z,9.70
2023-04-04T18:54:06.179Z,9.70
2023-04-04T18:56:32.981Z,9.70
2023-04-04T18:58:59.907Z,9.50
2023-04-04T19:01:27.084Z,9.40
2023-04-04T19:03:55.259Z,9.40
2023-04-04T19:06:27.388Z,9.40
2023-04-04T19:08:58.475Z,9.40
2023-04-04T19:11:25.384Z,9.40
2023-04-04T19:13:52.678Z,9.30
2023-04-04T19:16:19.608Z,9.30
2023-04-04T19:18:46.485Z,9.20
2023-04-04T19:21:13.299Z,9.20
2023-04-04T19:23:40.240Z,9.10
2023-04-04T19:26:07.504Z,9.20
2023-04-04T19:28:34.417Z,9.20
2023-04-04T19:31:02.093Z,9.20
2023-04-04T19:33:32.754Z,9.10
2023-04-04T19:36:11.701Z,9.10
2023-04-04T19:38:42.166Z,9.10
2023-04-04T19:41:12.630Z,9.20
2023-04-04T19:43:42.547Z,9.10
2023-04-04T19:46:16.135Z,9.20
2023-04-04T19:48:52.101Z,9.20
2023-04-04T19:51:20.404Z,9.10
2023-04-04T19:53:50.273Z,9.10
2023-04-04T19:56:21.365Z,9.10
2023-04-04T19:58:54.388Z,9.10
2023-04-04T20:01:24.596Z,9.10
2023-04-04T20:03:51.385Z,9.10
2023-04-04T20:06:24.806Z,9.30
2023-04-04T20:08:52.451Z,9.10
2023-04-04T20:11:34.182Z,9.10
2023-04-04T20:14:09.945Z,8.90
2023-04-04T20:16:37.543Z,9.00
2023-04-04T20:19:08.615Z,8.90
2023-04-04T20:21:36.130Z,9.00
2023-04-04T20:24:09.845Z,9.00
2023-04-04T20:26:59.517Z,9.00
2023-04-04T20:29:34.667Z,9.00
2023-04-04T20:32:08.908Z,9.00
2023-04-04T20:35:02.384Z,8.90
2023-04-04T20:37:29.159Z,8.90
2023-04-04T20:40:13.150Z,8.90
2023-04-04T20:42:41.441Z,8.90
2023-04-04T20:45:26.270Z,8.80
2023-04-04T20:47:58.200Z,8.80
2023-04-04T20:50:26.963Z,8.90
2023-04-04T20:53:01.461Z,8.90
2023-04-04T20:55:31.856Z,8.90
2023-04-04T20:58:17.889Z,8.90
2023-04-04T21:00:44.968Z,8.80
2023-04-04T21:03:26.818Z,8.80
2023-04-04T21:06:15.965Z,8.80
2023-04-04T21:08:53.737Z,8.70
2023-04-04T21:11:28.935Z,8.80
2023-04-04T21:13:56.972Z,8.80
2023-04-04T21:16:28.039Z,8.70
2023-04-04T21:18:59.720Z,8.70
2023-04-04T21:21:28.054Z,8.70
2023-04-04T21:23:59.587Z,8.70
2023-04-04T21:26:33.211Z,8.70
2023-04-04T21:29:25.999Z,8.70
2023-04-04T21:31:57.087Z,8.60
2023-04-04T21:34:27.236Z,8.70
2023-04-04T21:36:59.505Z,8.70
2023-04-04T21:39:31.122Z,8.70
2023-04-04T21:42:04.100Z,8.70
2023-04-04T21:44:32.475Z,8.70
2023-04-04T21:46:59.197Z,8.70
2023-04-04T21:49:26.441Z,8.60
2023-04-04T21:51:53.492Z,8.60
2023-04-04T21:54:20.302Z,8.60
2023-04-04T21:56:47.369Z,8.60
2023-04-04T21:59:14.193Z,8.60
2023-04-04T22:01:41.144Z,8.60
2023-04-04T22:04:08.254Z,8.50
2023-04-04T22:06:35.159Z,8.40
2023-04-04T22:09:02.979Z,8.40
2023-04-04T22:11:29.951Z,8.40
2023-04-04T22:14:04.102Z,8.30
2023-04-04T22:16:31.923Z,8.20
2023-04-04T22:19:01.109Z,8.20
2023-04-04T22:21:28.293Z,8.20
2023-04-04T22:24:01.715Z,8.10
2023-04-04T22:26:31.898Z,8.10
2023-04-04T22:29:00.373Z,8.00
2023-04-04T22:31:28.530Z,8.00
2023-04-04T22:33:56.540Z,8.00
2023-04-04T22:36:24.735Z,7.90
2023-04-04T22:38:57.076Z,7.90
2023-04-04T22:41:29.460Z,7.90
2023-04-04T22:43:57.904Z,7.80
2023-04-04T22:46:26.628Z,7.80
2023-04-04T22:49:08.774Z,7.70
2023-04-04T22:51:44.668Z,7.70
2023-04-04T22:54:16.756Z,7.60
2023-04-04T22:56:43.938Z,7.60
2023-04-04T22:59:11.151Z,7.50
2023-04-04T23:01:38.314Z,7.60
2023-04-04T23:04:05.618Z,7.50
2023-04-04T23:06:32.463Z,7.50
2023-04-04T23:08:59.344Z,7.50
2023-04-04T23:11:27.194Z,7.40
2023-04-04T23:13:54.149Z,7.20
2023-04-04T23:16:23.344Z,7.20
2023-04-04T23:18:53.256Z,7.20
2023-04-04T23:21:19.968Z,7.10
2023-04-04T23:23:46.681Z,7.20
2023-04-04T23:26:13.603Z,7.20
2023-04-04T23:28:40.330Z,7.10
2023-04-04T23:31:07.512Z,7.10
2023-04-04T23:33:34.196Z,7.00
2023-04-04T23:36:00.949Z,7.00
2023-04-04T23:38:27.666Z,6.90
2023-04-04T23:40:54.362Z,6.90
2023-04-04T23:43:21.142Z,6.90
2023-04-04T23:45:48.003Z,6.90
2023-04-04T23:48:14.785Z,6.90
2023-04-04T23:50:44.086Z,6.90
2023-04-04T23:53:11.807Z,6.80
2023-04-04T23:55:38.672Z,6.80
2023-04-04T23:58:06.065Z,6.70
